Time;durP1;ratioP1;P1;durP2;ratioP2;P2;SDS_P1;SDS_P2;PMS_P1;PMS_P2;Temp;Humidity;BMP_temperature;BMP_pressure;BME280_temperature;BME280_humidity;BME280_pressure;Samples;Min_cycle;Max_cycle;Signal;HPM_P1;HPM_P2
2022/01/24 00:00:59;;;;;;;1999.90;999.90;;;;;;;1.78;83.07;102694.03;1762182;80;21745;-70
2022/01/24 00:03:43;;;;;;;;;;;;;;;1.75;82.95;102692.59;1789920;80;20913;-70
2022/01/24 00:06:28;;;;;;;1999.90;999.90;;;;;;;1.73;83.15;102689.96;1786765;78;20091;-70
2022/01/24 00:09:13;;;;;;;1999.90;999.90;;;;;;;1.74;83.14;102688.28;1809989;78;21020;-70
2022/01/24 00:12:04;;;;;;;1999.90;999.90;;;;;;;1.74;83.15;102684.06;1793246;78;21072;-70
2022/01/24 00:17:41;;;;;;;1999.90;999.90;;;;;;;1.73;83.13;102683.58;1799031;78;21025;-69
2022/01/24 00:29:20;;;;;;;1999.90;999.90;;;;;;;1.73;83.25;102683.98;1786185;79;21068;-69
2022/01/24 00:32:06;;;;;;;1999.90;999.90;;;;;;;1.70;83.20;102678.32;1782334;79;21112;-69
2022/01/24 00:34:51;;;;;;;1999.90;999.90;;;;;;;1.70;83.21;102679.99;1788342;79;21500;-69
2022/01/24 00:37:35;;;;;;;1999.90;999.90;;;;;;;1.70;83.23;102677.44;1789359;79;21013;-69
2022/01/24 00:40:20;;;;;;;1999.90;999.90;;;;;;;1.69;83.25;102685.49;1778032;79;21294;-69
2022/01/24 00:43:16;;;;;;;1999.90;999.90;;;;;;;1.72;83.29;102684.78;1818057;78;21083;-70
2022/01/24 00:46:05;;;;;;;1999.90;999.90;;;;;;;1.72;83.26;102687.33;1806737;78;21533;-70
2022/01/24 00:49:17;;;;;;;1999.90;999.90;;;;;;;1.72;83.24;102680.55;1779577;78;20905;-70
2022/01/24 00:54:47;;;;;;;1999.90;999.90;;;;;;;1.75;83.30;102681.11;1757679;80;20902;-70
2022/01/24 00:57:31;;;;;;;1999.90;999.90;;;;;;;1.74;83.31;102681.52;1757577;80;20906;-70
2022/01/24 01:00:16;;;;;;;1999.90;999.90;;;;;;;1.76;83.32;102679.05;1774032;80;20895;-70
2022/01/24 01:03:00;;;;;;;1999.90;999.90;;;;;;;1.75;83.34;102681.99;1781263;80;21427;-70
2022/01/24 01:05:59;;;;;;;1999.90;999.90;;;;;;;1.76;83.32;102683.75;1770297;80;20902;-70
2022/01/24 01:23:52;;;;;;;1999.90;999.90;;;;;;;1.77;83.43;102676.58;1780499;79;20901;-70
2022/01/24 01:26:42;;;;;;;1999.90;999.90;;;;;;;1.78;83.42;102678.33;1808220;77;20894;-70
2022/01/24 01:29:30;;;;;;;;;;;;;;;1.79;83.43;102675.38;1820780;78;20897;-69
2022/01/24 01:32:43;;;;;;;1999.90;999.90;;;;;;;1.79;83.53;102676.26;1788415;79;20134;-70
2022/01/24 01:36:05;;;;;;;1999.90;999.90;;;;;;;1.78;83.47;102673.23;1816511;78;20932;-70
2022/01/24 01:38:25;;;;;;;1999.90;999.90;;;;;;;1.78;83.47;102671.08;1798711;78;20929;-70
2022/01/24 01:55:50;;;;;;;1999.90;999.90;;;;;;;1.81;83.55;102657.20;1798458;78;21055;-70
2022/01/24 01:58:36;;;;;;;1999.90;999.90;;;;;;;1.81;83.53;102658.48;1789384;79;21095;-70
2022/01/24 02:01:20;;;;;;;1999.90;999.90;;;;;;;1.81;83.53;102653.38;1780966;79;21555;-70
2022/01/24 02:04:05;;;;;;;1999.90;999.90;;;;;;;1.80;83.55;102655.06;1790130;79;21041;-70
2022/01/24 02:06:49;;;;;;;1999.90;999.90;;;;;;;1.80;83.55;102651.23;1759901;79;21646;-70
2022/01/24 02:09:34;;;;;;;1999.90;999.90;;;;;;;1.81;83.54;102659.36;1788154;79;21060;-70
2022/01/24 02:12:23;;;;;;;1999.90;999.90;;;;;;;1.82;83.59;102656.41;1772106;79;21021;-69
2022/01/24 02:15:07;;;;;;;1999.90;999.90;;;;;;;1.82;83.60;102664.94;1790187;79;21056;-69
2022/01/24 02:18:09;;;;;;;;;;;;;;;1.83;83.61;102673.47;1793226;79;21031;-70
2022/01/24 02:23:49;;;;;;;1999.90;999.90;;;;;;;1.76;83.39;102684.14;1791731;79;20926;-70
2022/01/24 02:26:33;;;;;;;1999.90;999.90;;;;;;;1.72;83.55;102688.20;1759987;79;20975;-70
2022/01/24 02:29:42;;;;;;;1999.90;999.90;;;;;;;1.72;83.63;102683.50;1766434;79;21537;-69
2022/01/24 02:32:08;;;;;;;1999.90;999.90;;;;;;;1.74;83.68;102686.61;1789933;79;21449;-69
2022/01/24 02:34:53;;;;;;;1999.90;999.90;;;;;;;1.75;83.71;102679.44;1772479;79;21034;-70
2022/01/24 02:37:37;;;;;;;1999.90;999.90;;;;;;;1.77;83.72;102676.97;1769098;80;21131;-70
2022/01/24 02:40:24;;;;;;;1999.90;999.90;;;;;;;1.80;83.74;102679.69;1789175;79;21028;-70
2022/01/24 02:49:16;;;;;;;1999.90;999.90;;;;;;;1.85;83.74;102665.10;1656781;84;21131;-69
2022/01/24 02:52:10;;;;;;;1999.90;999.90;;;;;;;1.84;83.73;102665.90;1646058;85;21609;-69
2022/01/24 02:54:55;;;;;;;1999.90;999.90;;;;;;;1.85;83.76;102659.12;1653829;84;21045;-70
2022/01/24 02:57:39;;;;;;;1999.90;999.90;;;;;;;1.85;83.76;102665.50;1659723;84;20941;-69
2022/01/24 03:00:24;;;;;;;1999.90;999.90;;;;;;;1.86;83.78;102662.16;1658399;85;20957;-70
2022/01/24 03:03:08;;;;;;;1999.90;999.90;;;;;;;1.87;83.75;102662.63;1653518;86;20960;-70
2022/01/24 03:05:53;;;;;;;1999.90;999.90;;;;;;;1.86;83.76;102660.48;1663098;84;20917;-70
2022/01/24 03:08:39;;;;;;;1999.90;999.90;;;;;;;1.86;83.78;102651.55;1653204;84;20921;-70
2022/01/24 03:11:27;;;;;;;;;;;;;;;1.86;83.80;102659.60;1667736;85;20989;-70
2022/01/24 03:14:09;;;;;;;1999.90;999.90;;;;;;;1.88;83.88;102666.54;1666572;84;20114;-69
2022/01/24 03:16:55;;;;;;;1999.90;999.90;;;;;;;1.87;83.80;102674.98;1666406;84;21048;-70
2022/01/24 03:19:39;;;;;;;1999.90;999.90;;;;;;;1.88;83.84;102674.59;1705149;80;20894;-70
2022/01/24 03:22:24;;;;;;;1999.90;999.90;;;;;;;1.88;83.87;102680.57;1784317;78;20929;-69
2022/01/24 03:25:08;;;;;;;1999.90;999.90;;;;;;;1.88;83.84;102679.30;1816232;78;21496;-70
2022/01/24 03:27:53;;;;;;;1999.90;999.90;;;;;;;1.89;83.83;102682.33;1773234;80;20893;-69
2022/01/24 03:30:39;;;;;;;1999.90;999.90;;;;;;;1.90;83.86;102681.53;1807891;78;20873;-70
2022/01/24 03:33:23;;;;;;;1999.90;999.90;;;;;;;1.91;83.86;102681.13;1817820;78;20917;-70
2022/01/24 03:36:08;;;;;;;1999.90;999.90;;;;;;;1.92;83.86;102677.38;1774414;79;20891;-70
2022/01/24 03:38:52;;;;;;;1999.90;999.90;;;;;;;1.92;83.90;102678.66;1809928;78;20918;-70
2022/01/24 03:41:39;;;;;;;1999.90;999.90;;;;;;;1.93;83.90;102684.64;1806952;78;20886;-70
2022/01/24 03:44:26;;;;;;;1999.90;999.90;;;;;;;1.93;83.90;102679.53;1813801;78;20893;-70
2022/01/24 03:47:30;;;;;;;;;;;;;;;1.94;83.91;102669.81;1789599;78;20972;-70
2022/01/24 03:50:00;;;;;;;1999.90;999.90;;;;;;;1.92;83.97;102672.67;1816601;78;20165;-70
2022/01/24 03:52:45;;;;;;;1999.90;999.90;;;;;;;1.92;83.90;102676.11;1820434;78;21041;-70
2022/01/24 03:55:31;;;;;;;1999.90;999.90;;;;;;;1.92;83.94;102673.95;1804832;78;21107;-70
2022/01/24 03:58:16;;;;;;;1999.90;999.90;;;;;;;1.93;83.97;102676.98;1813636;78;21445;-70
2022/01/24 04:01:04;;;;;;;1999.90;999.90;;;;;;;1.93;84.00;102671.88;1808535;78;21052;-70
2022/01/24 04:03:49;;;;;;;1999.90;999.90;;;;;;;1.94;83.99;102673.64;1804368;78;21613;-70
2022/01/24 04:06:34;;;;;;;1999.90;999.90;;;;;;;1.94;83.98;102677.06;1810501;78;21040;-70
2022/01/24 04:09:18;;;;;;;1999.90;999.90;;;;;;;1.95;83.98;102672.84;1815025;78;21567;-70
2022/01/24 04:12:04;;;;;;;1999.90;999.90;;;;;;;1.93;84.00;102671.88;1810691;78;21583;-70
2022/01/24 04:17:43;;;;;;;1999.90;999.90;;;;;;;1.92;83.96;102673.55;1752114;80;21057;-70
2022/01/24 04:23:29;;;;;;;1999.90;999.90;;;;;;;1.90;83.98;102671.33;1769665;79;21533;-70
2022/01/24 04:26:14;;;;;;;1999.90;999.90;;;;;;;1.91;84.02;102670.92;1778129;79;21031;-70
2022/01/24 04:29:00;;;;;;;1999.90;999.90;;;;;;;1.91;84.02;102672.20;1768774;80;21548;-70
2022/01/24 04:31:45;;;;;;;1999.90;999.90;;;;;;;1.90;84.02;102670.05;1774412;80;20962;-70
2022/01/24 04:34:30;;;;;;;1999.90;999.90;;;;;;;1.90;84.00;102670.45;1511257;80;20012947;-70
2022/01/24 04:37:16;;;;;;;1999.90;999.90;;;;;;;1.88;84.02;102672.91;1747347;81;20964;-70
2022/01/24 04:40:01;;;;;;;1999.90;999.90;;;;;;;1.88;84.00;102669.09;1762605;81;20989;-70
2022/01/24 04:42:51;;;;;;;1999.90;999.90;;;;;;;1.87;83.97;102670.28;1751070;81;21060;-70
2022/01/24 04:45:54;;;;;;;1999.90;999.90;;;;;;;1.86;84.01;102671.08;1762278;81;21072;-70
2022/01/24 04:54:57;;;;;;;1999.90;999.90;;;;;;;1.86;84.07;102671.96;1761268;81;20898;-70
2022/01/24 04:57:05;;;;;;;1999.90;999.90;;;;;;;1.86;84.09;102669.41;1762856;80;20949;-70
2022/01/24 04:59:53;;;;;;;1999.90;999.90;;;;;;;1.87;84.11;102673.72;1764229;81;20929;-70
2022/01/24 05:02:38;;;;;;;1999.90;999.90;;;;;;;1.86;84.11;102670.69;1747676;81;20921;-70
2022/01/24 05:05:25;;;;;;;1999.90;999.90;;;;;;;1.87;84.10;102671.56;1749396;80;20898;-70
2022/01/24 05:08:09;;;;;;;1999.90;999.90;;;;;;;1.87;84.11;102670.28;1749234;81;20929;-70
2022/01/24 05:11:07;;;;;;;1999.90;999.90;;;;;;;1.87;84.15;102676.27;1765044;81;21003;-70
2022/01/24 05:26:00;;;;;;;1999.90;999.90;;;;;;;1.83;84.15;102673.07;1749600;79;20925;-70
2022/01/24 05:28:44;;;;;;;1999.90;999.90;;;;;;;1.84;84.19;102679.05;1780080;79;20920;-70
2022/01/24 05:31:28;;;;;;;1999.90;999.90;;;;;;;1.84;84.19;102682.88;1787075;79;21418;-70
2022/01/24 05:34:13;;;;;;;1999.90;999.90;;;;;;;1.82;84.17;102682.80;1790530;79;21416;-70
2022/01/24 05:36:57;;;;;;;1999.90;999.90;;;;;;;1.82;84.22;102687.90;1767301;79;21374;-70
2022/01/24 05:39:42;;;;;;;1999.90;999.90;;;;;;;1.82;84.21;102698.09;1776171;79;20897;-70
2022/01/24 05:42:26;;;;;;;1999.90;999.90;;;;;;;1.82;84.20;102696.83;1775804;79;20937;-70
2022/01/24 05:45:11;;;;;;;1999.90;999.90;;;;;;;1.81;84.22;102699.30;1777273;79;20915;-70
2022/01/24 05:47:55;;;;;;;1999.90;999.90;;;;;;;1.82;84.25;102701.92;1767355;79;20935;-70
2022/01/24 05:50:39;;;;;;;1999.90;999.90;;;;;;;1.82;84.27;102703.20;1788924;79;20890;-70
2022/01/24 05:53:24;;;;;;;1999.90;999.90;;;;;;;1.84;84.31;102705.83;1791284;79;22038;-70
2022/01/24 05:56:08;;;;;;;1999.90;999.90;;;;;;;1.86;84.33;102710.22;1786069;79;20905;-70
2022/01/24 05:58:52;;;;;;;1999.90;999.90;;;;;;;1.87;84.31;102704.33;1792128;79;20886;-70
2022/01/24 06:01:36;;;;;;;1999.90;999.90;;;;;;;1.87;84.31;102703.05;1792642;79;20894;-70
2022/01/24 06:04:21;;;;;;;1999.90;999.90;;;;;;;1.87;84.30;102704.33;1782199;79;20898;-70
2022/01/24 06:07:05;;;;;;;1999.90;999.90;;;;;;;1.88;84.32;102700.09;1786891;79;20921;-70
2022/01/24 06:09:50;;;;;;;1999.90;999.90;;;;;;;1.89;84.33;102706.56;1778884;79;20937;-69
2022/01/24 06:12:34;;;;;;;1999.90;999.90;;;;;;;1.90;84.35;102713.41;1769202;79;20917;-70
2022/01/24 06:15:19;;;;;;;1999.90;999.90;;;;;;;1.90;84.37;102707.03;1779475;79;21386;-70
2022/01/24 06:18:03;;;;;;;1999.90;999.90;;;;;;;1.91;84.38;102704.97;1794030;79;20928;-70
2022/01/24 06:20:48;;;;;;;1999.90;999.90;;;;;;;1.92;84.37;102701.62;1785109;79;20933;-70
2022/01/24 06:23:32;;;;;;;1999.90;999.90;;;;;;;1.93;84.37;102702.49;1786539;79;20905;-70
2022/01/24 06:26:16;;;;;;;1999.90;999.90;;;;;;;1.92;84.37;102709.27;1781680;79;20946;-70
2022/01/24 06:29:00;;;;;;;1999.90;999.90;;;;;;;1.92;84.38;102706.72;1763756;79;20939;-70
2022/01/24 06:31:45;;;;;;;1999.90;999.90;;;;;;;1.93;84.38;102709.75;1762793;79;21124;-70
2022/01/24 06:34:29;;;;;;;1999.90;999.90;;;;;;;1.94;84.43;102707.68;1765203;78;21518;-70
2022/01/24 06:37:14;;;;;;;1999.90;999.90;;;;;;;1.95;84.42;102712.38;1768779;79;21057;-70
2022/01/24 06:39:59;;;;;;;1999.90;999.90;;;;;;;1.95;84.42;102714.93;1781078;79;21548;-70
2022/01/24 06:42:44;;;;;;;1999.90;999.90;;;;;;;1.93;84.44;102712.30;1761098;79;21017;-70
2022/01/24 06:45:29;;;;;;;1999.90;999.90;;;;;;;1.95;84.48;102709.44;1767050;79;21045;-70
2022/01/24 06:48:14;;;;;;;1999.90;999.90;;;;;;;1.95;84.42;102714.53;1765761;79;21088;-70
2022/01/24 06:50:59;;;;;;;1999.90;999.90;;;;;;;1.93;84.44;102717.80;1771682;79;21050;-70
2022/01/24 06:53:43;;;;;;;1999.90;999.90;;;;;;;1.94;84.44;102717.00;1772628;79;21053;-70
2022/01/24 06:56:28;;;;;;;1999.90;999.90;;;;;;;1.94;84.50;102720.83;1761330;79;21025;-70
2022/01/24 06:59:12;;;;;;;1999.90;999.90;;;;;;;1.95;84.53;102729.84;1775473;79;21065;-70
2022/01/24 07:01:57;;;;;;;1999.90;999.90;;;;;;;1.97;84.56;102725.70;1792397;78;21871;-70
2022/01/24 07:04:43;;;;;;;1999.90;999.90;;;;;;;1.97;84.55;102722.27;1768253;79;21264;-70
2022/01/24 07:07:28;;;;;;;1999.90;999.90;;;;;;;1.98;84.58;102720.20;1768984;79;21880;-70
2022/01/24 07:10:13;;;;;;;1999.90;999.90;;;;;;;2.00;84.59;102724.98;1781692;78;21129;-70
2022/01/24 07:12:58;;;;;;;1999.90;999.90;;;;;;;1.99;84.59;102729.20;1784424;78;21068;-70
2022/01/24 07:15:53;;;;;;;1999.90;999.90;;;;;;;2.01;84.60;102722.03;1785416;78;21109;-70
2022/01/24 07:21:20;;;;;;;1999.90;999.90;;;;;;;2.03;84.63;102728.09;1789553;78;21090;-70
2022/01/24 07:24:05;;;;;;;1999.90;999.90;;;;;;;2.05;84.68;102730.33;1781785;78;21648;-68
2022/01/24 07:26:50;;;;;;;1999.90;999.90;;;;;;;2.06;84.71;102734.23;1800503;78;21053;-68
2022/01/24 07:29:36;;;;;;;1999.90;999.90;;;;;;;2.09;84.71;102734.77;1811015;78;20901;-67
2022/01/24 07:32:21;;;;;;;1999.90;999.90;;;;;;;2.10;84.73;102741.22;1817522;77;20929;-67
2022/01/24 07:35:05;;;;;;;1999.90;999.90;;;;;;;2.12;84.73;102739.63;1821140;77;20854;-68
2022/01/24 07:37:50;;;;;;;1999.90;999.90;;;;;;;2.14;84.77;102744.41;1822349;77;20914;-67
2022/01/24 07:40:39;;;;;;;89.37;52.85;;;;;;;2.17;84.74;102747.52;1815391;77;20893;-67
2022/01/24 07:43:22;;;;;;;57.13;29.15;;;;;;;2.20;84.79;102752.39;1820033;78;21401;-67
2022/01/24 07:46:06;;;;;;;55.28;28.45;;;;;;;2.24;84.81;102750.88;1808458;78;20881;-67
2022/01/24 07:48:51;;;;;;;61.25;31.33;;;;;;;2.27;84.81;102751.03;1808802;77;21331;-67
2022/01/24 07:51:35;;;;;;;56.85;29.87;;;;;;;2.30;84.78;102756.30;1812380;78;20893;-67
2022/01/24 07:54:20;;;;;;;63.63;32.98;;;;;;;2.32;84.85;102750.48;1814944;78;20894;-68
2022/01/24 07:57:06;;;;;;;61.05;31.80;;;;;;;2.33;84.81;102740.75;1817113;78;20886;-68
2022/01/24 07:59:50;;;;;;;62.73;31.27;;;;;;;2.36;84.83;102741.30;1817724;78;21447;-68
2022/01/24 08:02:36;;;;;;;56.33;29.60;;;;;;;2.37;84.88;102734.13;1811673;77;20932;-68
2022/01/24 08:05:20;;;;;;;49.33;27.40;;;;;;;2.41;84.86;102733.88;1816090;78;21289;-71
2022/01/24 08:08:06;;;;;;;53.65;27.67;;;;;;;2.43;84.91;102737.39;1811658;77;21059;-70
2022/01/24 08:10:50;;;;;;;54.08;27.07;;;;;;;2.44;84.86;102736.19;1792766;78;21095;-70
2022/01/24 08:13:36;;;;;;;52.27;27.40;;;;;;;2.46;84.88;102734.59;1792054;78;21079;-70
2022/01/24 08:16:23;;;;;;;51.50;26.90;;;;;;;2.46;84.86;102734.59;1767830;79;21076;-71
2022/01/24 08:19:07;;;;;;;54.33;27.17;;;;;;;2.48;84.86;102738.10;1806811;78;21553;-70
2022/01/24 08:21:52;;;;;;;50.03;27.20;;;;;;;2.50;84.85;102743.29;1804835;78;21139;-71
2022/01/24 08:24:37;;;;;;;46.53;25.12;;;;;;;2.51;84.94;102738.27;1799365;78;21083;-71
2022/01/24 08:27:24;;;;;;;52.88;26.30;;;;;;;2.53;84.93;102737.94;1813276;78;21024;-70
2022/01/24 08:30:16;;;;;;;52.38;25.90;;;;;;;2.56;84.98;102735.94;1794366;78;21433;-70
2022/01/24 08:33:01;;;;;;;53.60;27.27;;;;;;;2.58;84.98;102735.62;1805498;78;20870;-70
2022/01/24 08:35:46;;;;;;;49.05;26.33;;;;;;;2.60;85.00;102736.57;1789395;78;20972;-70
2022/01/24 08:38:34;;;;;;;48.83;26.20;;;;;;;2.63;85.04;102735.42;1823207;77;21049;-68
2022/01/24 08:41:37;;;;;;;46.25;24.00;;;;;;;2.66;85.02;102731.74;1794903;77;21020;-68
2022/01/24 08:44:31;;;;;;;49.60;23.95;;;;;;;2.69;85.00;102739.56;1783614;78;21044;-68
2022/01/24 08:47:06;;;;;;;47.25;24.07;;;;;;;2.72;85.00;102735.00;1774522;78;21066;-68
2022/01/24 08:49:52;;;;;;;41.07;22.03;;;;;;;2.72;85.00;102738.83;1805224;78;20923;-68
2022/01/24 08:52:37;;;;;;;44.15;22.82;;;;;;;2.75;85.05;102738.59;1809904;77;20921;-68
2022/01/24 08:55:21;;;;;;;39.50;20.68;;;;;;;2.79;85.03;102735.78;1765384;78;20921;-71
2022/01/24 08:58:07;;;;;;;41.90;22.98;;;;;;;2.80;85.03;102741.38;1820133;78;20921;-69
2022/01/24 09:00:52;;;;;;;36.60;19.32;;;;;;;2.83;85.09;102736.41;1812757;77;20968;-69
2022/01/24 09:03:40;;;;;;;39.78;19.70;;;;;;;2.88;85.11;102732.41;1817179;78;21020;-68
2022/01/24 09:06:24;;;;;;;;;;;;;;;2.92;85.09;102733.03;1818155;78;21103;-68
2022/01/24 09:09:08;;;;;;;38.42;20.68;;;;;;;2.96;85.13;102737.09;1820190;77;20187;-68
2022/01/24 09:11:53;;;;;;;36.38;17.87;;;;;;;2.98;85.15;102734.22;1817812;78;20976;-68
2022/01/24 09:14:44;;;;;;;38.85;17.82;;;;;;;3.05;85.19;102734.11;1787464;79;21044;-68
2022/01/24 09:17:29;;;;;;;33.58;18.12;;;;;;;3.10;85.17;102735.22;1787596;79;21024;-68
2022/01/24 09:20:14;;;;;;;29.70;16.90;;;;;;;3.15;85.20;102732.45;1782360;79;21494;-68
2022/01/24 09:22:58;;;;;;;35.30;18.17;;;;;;;3.19;85.18;102728.36;1776708;79;21084;-68
2022/01/24 09:25:43;;;;;;;32.75;18.67;;;;;;;3.22;85.19;102729.78;1778571;78;21080;-68
2022/01/24 09:28:28;;;;;;;36.77;19.00;;;;;;;3.25;85.19;102728.65;1782328;79;21405;-68
2022/01/24 09:31:15;;;;;;;33.70;18.48;;;;;;;3.26;85.24;102726.57;1775074;79;21057;-68
2022/01/24 09:34:00;;;;;;;32.80;17.25;;;;;;;3.31;85.21;102729.82;1773863;79;20929;-68
2022/01/24 09:36:44;;;;;;;26.85;15.60;;;;;;;3.35;85.26;102719.34;1770179;80;21315;-68
2022/01/24 09:39:29;;;;;;;27.82;15.78;;;;;;;3.41;85.22;102722.19;1779883;80;20933;-68
2022/01/24 09:42:13;;;;;;;26.80;15.25;;;;;;;3.44;85.28;102722.33;1767847;80;20951;-68
2022/01/24 09:44:58;;;;;;;27.55;14.65;;;;;;;3.48;85.25;102722.07;1779942;80;20882;-68
2022/01/24 09:47:43;;;;;;;24.57;14.28;;;;;;;3.54;85.28;102721.08;1766894;80;20898;-68
2022/01/24 09:50:28;;;;;;;28.50;14.85;;;;;;;3.58;85.21;102719.14;1780689;79;20878;-68
2022/01/24 09:53:14;;;;;;;24.65;13.90;;;;;;;3.62;85.30;102710.80;1777661;79;20937;-68
2022/01/24 09:56:03;;;;;;;23.15;13.50;;;;;;;3.64;85.28;102715.55;1769068;79;20882;-68
2022/01/24 09:58:45;;;;;;;26.87;13.78;;;;;;;3.67;85.27;102718.25;1782994;80;21039;-68
2022/01/24 10:01:32;;;;;;;27.50;15.20;;;;;;;3.69;85.30;102718.31;1781826;80;21048;-68
2022/01/24 10:04:20;;;;;;;22.20;13.40;;;;;;;3.72;85.29;102721.02;1782504;79;20929;-68
2022/01/24 10:07:16;;;;;;;23.10;13.50;;;;;;;3.73;85.26;102718.53;1778726;79;21460;-68
2022/01/24 10:10:00;;;;;;;22.32;12.65;;;;;;;3.74;85.22;102712.61;1775487;79;20986;-68
2022/01/24 10:18:32;;;;;;;26.05;13.75;;;;;;;3.71;85.22;102709.03;1766962;80;21056;-70
2022/01/24 10:21:18;;;;;;;26.10;13.38;;;;;;;3.70;85.25;102702.16;1774970;79;21036;-69
2022/01/24 10:24:02;;;;;;;32.90;16.50;;;;;;;3.69;85.21;102705.13;1777029;78;21091;-69
2022/01/24 10:27:10;;;;;;;29.52;16.62;;;;;;;3.68;85.25;102703.77;1777900;78;20977;-70
2022/01/24 10:30:08;;;;;;;33.90;16.60;;;;;;;3.64;85.24;102702.35;1794589;79;21103;-70
2022/01/24 10:32:55;;;;;;;32.65;16.70;;;;;;;3.63;85.27;102696.80;1784947;79;21504;-70
2022/01/24 10:35:47;;;;;;;37.63;17.62;;;;;;;3.62;85.30;102696.73;1783237;79;21035;-70
2022/01/24 10:38:43;;;;;;;39.30;18.98;;;;;;;3.63;85.34;102698.08;1785218;79;20886;-70
2022/01/24 10:41:39;;;;;;;34.78;17.00;;;;;;;3.64;85.37;102687.00;1778835;79;20913;-70
2022/01/24 10:44:12;;;;;;;36.23;16.62;;;;;;;3.68;85.36;102685.86;1800846;79;20952;-70
2022/01/24 10:47:22;;;;;;;35.68;17.37;;;;;;;3.67;85.38;102673.48;1783872;79;21008;-70
2022/01/24 10:50:08;;;;;;;35.50;17.15;;;;;;;3.71;85.41;102671.93;1787037;79;21127;-70
2022/01/24 10:52:54;;;;;;;39.98;19.05;;;;;;;3.74;85.44;102674.63;1798972;79;21440;-70
2022/01/24 10:55:42;;;;;;;37.00;17.32;;;;;;;3.75;85.41;102671.27;1797333;79;20881;-70
2022/01/24 10:58:33;;;;;;;36.35;16.42;;;;;;;3.77;85.45;102666.69;1803146;79;20928;-70
2022/01/24 11:01:25;;;;;;;40.12;18.00;;;;;;;3.79;85.45;102668.91;1790224;79;21397;-70
2022/01/24 11:04:13;;;;;;;36.93;18.10;;;;;;;3.81;85.45;102664.73;1792928;79;21433;-70
2022/01/24 11:07:01;;;;;;;35.80;17.42;;;;;;;3.86;85.55;102661.10;1797240;79;20925;-70
2022/01/24 11:09:46;;;;;;;31.85;16.17;;;;;;;3.90;85.50;102656.59;1796422;79;20893;-69
2022/01/24 11:12:30;;;;;;;29.23;15.03;;;;;;;3.90;85.49;102652.35;1792620;79;20944;-70
2022/01/24 11:15:15;;;;;;;32.28;15.83;;;;;;;3.93;85.47;102655.45;1801085;79;20929;-70
2022/01/24 11:18:01;;;;;;;25.12;14.03;;;;;;;3.95;85.50;102655.98;1798843;79;21511;-71
2022/01/24 11:20:46;;;;;;;;;;;;;;;3.97;85.52;102650.53;1793717;79;20937;-72
2022/01/24 11:23:33;;;;;;;24.87;13.10;;;;;;;3.99;85.57;102651.47;1794635;79;20154;-71
2022/01/24 11:26:19;;;;;;;29.90;15.25;;;;;;;4.03;85.54;102649.92;1800242;79;20944;-72
2022/01/24 11:29:05;;;;;;;22.10;14.35;;;;;;;4.01;85.44;102649.38;1787158;79;20929;-72
2022/01/24 11:32:04;;;;;;;25.10;14.28;;;;;;;4.01;85.47;102655.38;1783943;79;20932;-71
2022/01/24 11:34:51;;;;;;;25.85;13.25;;;;;;;4.04;85.60;102656.80;1770874;79;20921;-71
2022/01/24 11:37:45;;;;;;;27.42;14.07;;;;;;;4.08;85.58;102648.84;1774884;79;20885;-71
2022/01/24 11:40:45;;;;;;;30.50;15.63;;;;;;;4.10;85.52;102648.50;1763865;79;20945;-71
2022/01/24 11:43:45;;;;;;;31.40;15.30;;;;;;;4.09;85.49;102641.62;1745713;79;20901;-71
2022/01/24 11:46:48;;;;;;;25.95;14.73;;;;;;;4.06;85.45;102642.38;1773502;79;20901;-71
2022/01/24 11:49:36;;;;;;;26.02;14.83;;;;;;;4.04;85.51;102645.27;1787026;79;21359;-71
2022/01/24 11:52:31;;;;;;;27.42;14.65;;;;;;;4.07;85.60;102644.53;1779078;79;20937;-70
2022/01/24 11:55:27;;;;;;;25.70;14.90;;;;;;;4.08;85.58;102635.64;1773750;79;20940;-70
2022/01/24 11:58:06;;;;;;;26.90;15.05;;;;;;;4.04;85.49;102636.72;1780528;79;20945;-71
2022/01/24 12:00:52;;;;;;;29.12;15.43;;;;;;;4.03;85.61;102632.41;1776485;79;20999;-70
2022/01/24 12:03:42;;;;;;;26.45;15.93;;;;;;;4.02;85.60;102622.98;1777806;79;21044;-70
2022/01/24 12:06:27;;;;;;;28.17;17.35;;;;;;;3.99;85.58;102627.56;1766639;79;21040;-70
2022/01/24 12:09:15;;;;;;;32.70;18.87;;;;;;;3.95;85.56;102626.95;1769459;79;20948;-69
2022/01/24 12:12:21;;;;;;;29.87;18.45;;;;;;;3.91;85.60;102619.95;1741434;81;20945;-73
2022/01/24 12:15:09;;;;;;;30.35;19.15;;;;;;;3.91;85.59;102614.84;1755641;79;20968;-69
2022/01/24 12:17:55;;;;;;;30.37;18.30;;;;;;;3.91;85.63;102618.67;1782546;79;20901;-70
2022/01/24 12:20:45;;;;;;;28.62;18.55;;;;;;;3.89;85.62;102615.17;1780016;79;21381;-70
2022/01/24 12:23:40;;;;;;;29.98;19.02;;;;;;;3.89;85.64;102616.05;1776585;79;20956;-71
2022/01/24 12:26:35;;;;;;;25.90;18.17;;;;;;;3.88;85.63;102613.02;1777702;79;21048;-70
2022/01/24 12:29:26;;;;;;;29.12;18.82;;;;;;;3.87;85.65;102609.11;1771953;79;21362;-70
2022/01/24 12:32:24;;;;;;;24.15;17.27;;;;;;;3.88;85.74;102613.42;1787265;78;21406;-68
2022/01/24 12:35:28;;;;;;;25.17;17.35;;;;;;;3.88;85.72;102609.18;1774347;78;20889;-68
2022/01/24 12:38:16;;;;;;;21.07;15.80;;;;;;;3.88;85.69;102609.59;1790689;78;20944;-68
2022/01/24 12:41:34;;;;;;;24.05;16.25;;;;;;;3.85;85.67;102611.61;1786783;79;20951;-70
2022/01/24 12:47:22;;;;;;;21.35;16.10;;;;;;;3.82;85.73;102603.80;1646146;83;20958;-70
2022/01/24 12:50:10;;;;;;;24.23;17.27;;;;;;;3.81;85.79;102599.48;1693162;83;20962;-69
2022/01/24 12:52:54;;;;;;;23.07;16.15;;;;;;;3.79;85.74;102604.06;1708773;83;20950;-68
2022/01/24 12:55:39;;;;;;;25.43;16.45;;;;;;;3.80;85.77;102603.26;1669540;83;20918;-68
2022/01/24 12:58:37;;;;;;;21.02;15.78;;;;;;;3.79;85.78;102604.95;1692564;83;20921;-69
2022/01/24 13:01:30;;;;;;;23.40;15.90;;;;;;;3.79;85.81;102608.78;1690442;83;20942;-71
2022/01/24 13:04:16;;;;;;;19.75;14.93;;;;;;;3.80;85.83;102601.98;1692689;82;20910;-70
2022/01/24 13:07:00;;;;;;;23.57;15.43;;;;;;;3.80;85.84;102605.82;1691142;83;20957;-70
2022/01/24 13:09:45;;;;;;;21.90;15.85;;;;;;;3.82;85.86;102611.88;1702647;83;20929;-70
2022/01/24 13:12:30;;;;;;;17.55;13.60;;;;;;;3.84;85.85;102605.14;1704944;83;20946;-70
2022/01/24 13:15:26;;;;;;;17.92;13.70;;;;;;;3.84;85.85;102606.42;1683410;84;20961;-69
2022/01/24 13:21:15;;;;;;;18.82;13.60;;;;;;;3.84;85.88;102597.06;1695646;83;20965;-68
2022/01/24 13:24:00;;;;;;;19.07;12.78;;;;;;;3.85;85.86;102591.14;1679622;83;21520;-69
2022/01/24 13:26:47;;;;;;;16.27;12.58;;;;;;;3.85;85.88;102588.58;1675568;83;21470;-70
2022/01/24 13:29:38;;;;;;;19.20;13.75;;;;;;;3.86;85.90;102584.34;1711777;82;20918;-71
2022/01/24 13:32:48;;;;;;;18.05;12.37;;;;;;;3.88;85.91;102595.11;1698186;82;20929;-69
2022/01/24 13:35:48;;;;;;;18.05;12.15;;;;;;;3.91;85.92;102593.08;1709071;82;20954;-69
2022/01/24 13:38:39;;;;;;;17.57;13.20;;;;;;;3.91;85.88;102590.52;1717502;82;21485;-68
2022/01/24 13:41:24;;;;;;;18.62;14.03;;;;;;;3.91;85.86;102593.08;1701260;82;20981;-69
2022/01/24 13:44:13;;;;;;;21.45;14.80;;;;;;;3.90;85.89;102587.50;1705477;82;20957;-69
2022/01/24 13:47:03;;;;;;;20.12;13.83;;;;;;;3.91;85.95;102591.40;1701977;84;20914;-69
2022/01/24 13:49:48;;;;;;;19.52;13.72;;;;;;;3.91;85.93;102589.25;1697914;84;20961;-69
2022/01/24 13:52:32;;;;;;;20.97;13.98;;;;;;;3.91;85.94;102591.80;1697116;81;21079;-69
2022/01/24 13:55:20;;;;;;;19.85;13.60;;;;;;;3.91;85.94;102590.13;1704964;82;21078;-70
2022/01/24 13:58:05;;;;;;;20.75;14.33;;;;;;;3.91;85.97;102586.69;1661168;84;20985;-68
2022/01/24 14:01:00;;;;;;;24.72;15.60;;;;;;;3.89;85.96;102590.46;1713154;82;20976;-69
2022/01/24 14:03:59;;;;;;;19.67;14.35;;;;;;;3.88;85.97;102581.03;1701713;84;20917;-69
2022/01/24 14:06:44;;;;;;;22.30;14.43;;;;;;;3.89;85.99;102585.75;1702066;84;20908;-69
2022/01/24 14:09:52;;;;;;;19.05;14.13;;;;;;;3.86;85.96;102585.21;1710447;82;20954;-69